sensor_id;sensor_type;location;lat;lon;timestamp;P1;durP1;ratioP1;P2;durP2;ratioP2
9392;SDS011;4736;52.508;13.422;2023-09-08T00:00:48;8.97;;;8.20;;
9392;SDS011;4736;52.508;13.422;2023-09-08T00:03:52;9.70;;;8.90;;
9392;SDS011;4736;52.508;13.422;2023-09-08T00:06:55;9.30;;;8.67;;
9392;SDS011;4736;52.508;13.422;2023-09-08T00:10:00;9.57;;;8.80;;
9392;SDS011;4736;52.508;13.422;2023-09-08T00:13:03;9.40;;;8.73;;
9392;SDS011;4736;52.508;13.422;2023-09-08T00:16:07;9.53;;;8.83;;
9392;SDS011;4736;52.508;13.422;2023-09-08T00:19:11;8.77;;;8.20;;
9392;SDS011;4736;52.508;13.422;2023-09-08T00:22:14;9.53;;;8.87;;
9392;SDS011;4736;52.508;13.422;2023-09-08T00:25:19;10.20;;;9.30;;
9392;SDS011;4736;52.508;13.422;2023-09-08T00:28:22;10.13;;;9.10;;
9392;SDS011;4736;52.508;13.422;2023-09-08T00:31:25;10.50;;;9.60;;
9392;SDS011;4736;52.508;13.422;2023-09-08T00:34:28;10.77;;;9.77;;
9392;SDS011;4736;52.508;13.422;2023-09-08T00:37:32;9.43;;;8.80;;
9392;SDS011;4736;52.508;13.422;2023-09-08T00:40:36;10.40;;;9.50;;
9392;SDS011;4736;52.508;13.422;2023-09-08T00:43:39;10.60;;;9.57;;
9392;SDS011;4736;52.508;13.422;2023-09-08T00:46:42;9.97;;;9.17;;
9392;SDS011;4736;52.508;13.422;2023-09-08T00:49:45;9.70;;;9.00;;
9392;SDS011;4736;52.508;13.422;2023-09-08T00:52:50;10.20;;;9.30;;
9392;SDS011;4736;52.508;13.422;2023-09-08T00:55:55;10.67;;;9.70;;
9392;SDS011;4736;52.508;13.422;2023-09-08T00:58:59;10.33;;;9.40;;
9392;SDS011;4736;52.508;13.422;2023-09-08T01:02:04;10.10;;;9.27;;
9392;SDS011;4736;52.508;13.422;2023-09-08T01:05:08;10.60;;;9.73;;
9392;SDS011;4736;52.508;13.422;2023-09-08T01:08:11;11.00;;;10.10;;
9392;SDS011;4736;52.508;13.422;2023-09-08T01:11:16;13.97;;;10.57;;
9392;SDS011;4736;52.508;13.422;2023-09-08T01:14:20;11.73;;;10.17;;
9392;SDS011;4736;52.508;13.422;2023-09-08T01:17:23;10.23;;;9.53;;
9392;SDS011;4736;52.508;13.422;2023-09-08T01:20:27;11.70;;;10.63;;
9392;SDS011;4736;52.508;13.422;2023-09-08T01:23:38;10.37;;;9.43;;
9392;SDS011;4736;52.508;13.422;2023-09-08T01:26:58;10.40;;;9.50;;
9392;SDS011;4736;52.508;13.422;2023-09-08T01:30:02;10.37;;;9.47;;
9392;SDS011;4736;52.508;13.422;2023-09-08T01:33:06;11.20;;;10.23;;
9392;SDS011;4736;52.508;13.422;2023-09-08T01:36:10;11.00;;;9.87;;
9392;SDS011;4736;52.508;13.422;2023-09-08T01:39:13;11.50;;;10.50;;
9392;SDS011;4736;52.508;13.422;2023-09-08T01:42:18;10.67;;;9.87;;
9392;SDS011;4736;52.508;13.422;2023-09-08T01:45:21;10.80;;;10.10;;
9392;SDS011;4736;52.508;13.422;2023-09-08T01:48:24;11.23;;;10.33;;
9392;SDS011;4736;52.508;13.422;2023-09-08T01:51:27;11.20;;;10.07;;
9392;SDS011;4736;52.508;13.422;2023-09-08T01:54:30;11.10;;;10.27;;
9392;SDS011;4736;52.508;13.422;2023-09-08T01:57:35;10.63;;;9.93;;
9392;SDS011;4736;52.508;13.422;2023-09-08T02:00:38;10.97;;;10.13;;
9392;SDS011;4736;52.508;13.422;2023-09-08T02:03:41;10.60;;;9.80;;
9392;SDS011;4736;52.508;13.422;2023-09-08T02:06:44;10.80;;;9.93;;
9392;SDS011;4736;52.508;13.422;2023-09-08T02:09:48;11.03;;;10.10;;
9392;SDS011;4736;52.508;13.422;2023-09-08T02:12:55;12.53;;;10.47;;
9392;SDS011;4736;52.508;13.422;2023-09-08T02:15:58;11.50;;;10.50;;
9392;SDS011;4736;52.508;13.422;2023-09-08T02:19:02;10.80;;;10.00;;
9392;SDS011;4736;52.508;13.422;2023-09-08T02:22:06;11.53;;;10.27;;
9392;SDS011;4736;52.508;13.422;2023-09-08T02:25:09;10.80;;;10.10;;
9392;SDS011;4736;52.508;13.422;2023-09-08T02:28:13;10.43;;;9.67;;
9392;SDS011;4736;52.508;13.422;2023-09-08T02:31:19;11.50;;;10.50;;
9392;SDS011;4736;52.508;13.422;2023-09-08T02:34:22;11.63;;;10.63;;
9392;SDS011;4736;52.508;13.422;2023-09-08T02:37:26;11.43;;;10.43;;
9392;SDS011;4736;52.508;13.422;2023-09-08T02:40:29;11.37;;;10.43;;
9392;SDS011;4736;52.508;13.422;2023-09-08T02:43:35;10.63;;;9.83;;
9392;SDS011;4736;52.508;13.422;2023-09-08T02:46:39;10.83;;;10.03;;
9392;SDS011;4736;52.508;13.422;2023-09-08T02:49:42;12.67;;;11.67;;
9392;SDS011;4736;52.508;13.422;2023-09-08T02:52:45;11.67;;;10.67;;
9392;SDS011;4736;52.508;13.422;2023-09-08T02:55:48;12.13;;;11.13;;
9392;SDS011;4736;52.508;13.422;2023-09-08T02:58:53;11.83;;;10.83;;
9392;SDS011;4736;52.508;13.422;2023-09-08T03:01:56;11.60;;;10.60;;
9392;SDS011;4736;52.508;13.422;2023-09-08T03:05:00;12.00;;;10.80;;
9392;SDS011;4736;52.508;13.422;2023-09-08T03:08:04;12.13;;;11.23;;
9392;SDS011;4736;52.508;13.422;2023-09-08T03:11:08;12.00;;;10.83;;
9392;SDS011;4736;52.508;13.422;2023-09-08T03:14:13;12.67;;;11.47;;
9392;SDS011;4736;52.508;13.422;2023-09-08T03:17:16;12.47;;;11.53;;
9392;SDS011;4736;52.508;13.422;2023-09-08T03:20:19;13.13;;;12.03;;
9392;SDS011;4736;52.508;13.422;2023-09-08T03:23:23;11.70;;;10.60;;
9392;SDS011;4736;52.508;13.422;2023-09-08T03:26:26;12.13;;;11.03;;
9392;SDS011;4736;52.508;13.422;2023-09-08T03:29:31;12.90;;;11.67;;
9392;SDS011;4736;52.508;13.422;2023-09-08T03:32:34;11.00;;;10.20;;
9392;SDS011;4736;52.508;13.422;2023-09-08T03:35:37;13.13;;;11.90;;
9392;SDS011;4736;52.508;13.422;2023-09-08T03:38:40;12.37;;;11.47;;
9392;SDS011;4736;52.508;13.422;2023-09-08T03:41:44;11.90;;;10.90;;
9392;SDS011;4736;52.508;13.422;2023-09-08T03:44:49;13.10;;;12.10;;
9392;SDS011;4736;52.508;13.422;2023-09-08T03:47:53;10.70;;;9.90;;
9392;SDS011;4736;52.508;13.422;2023-09-08T03:50:56;13.00;;;11.90;;
9392;SDS011;4736;52.508;13.422;2023-09-08T03:53:59;12.87;;;11.87;;
9392;SDS011;4736;52.508;13.422;2023-09-08T03:57:04;13.93;;;12.63;;
9392;SDS011;4736;52.508;13.422;2023-09-08T04:00:09;14.13;;;12.83;;
9392;SDS011;4736;52.508;13.422;2023-09-08T04:03:13;13.70;;;12.37;;
9392;SDS011;4736;52.508;13.422;2023-09-08T04:06:16;13.20;;;12.03;;
9392;SDS011;4736;52.508;13.422;2023-09-08T04:09:19;12.87;;;11.67;;
9392;SDS011;4736;52.508;13.422;2023-09-08T04:12:22;14.03;;;12.87;;
9392;SDS011;4736;52.508;13.422;2023-09-08T04:15:27;13.03;;;11.93;;
9392;SDS011;4736;52.508;13.422;2023-09-08T04:18:30;12.63;;;11.40;;
9392;SDS011;4736;52.508;13.422;2023-09-08T04:21:34;13.60;;;12.40;;
9392;SDS011;4736;52.508;13.422;2023-09-08T04:24:38;13.73;;;12.37;;
9392;SDS011;4736;52.508;13.422;2023-09-08T04:27:42;13.73;;;12.33;;
9392;SDS011;4736;52.508;13.422;2023-09-08T04:30:48;13.37;;;12.07;;
9392;SDS011;4736;52.508;13.422;2023-09-08T04:33:51;13.37;;;12.13;;
9392;SDS011;4736;52.508;13.422;2023-09-08T04:36:55;14.13;;;12.60;;
9392;SDS011;4736;52.508;13.422;2023-09-08T04:39:58;12.57;;;11.47;;
9392;SDS011;4736;52.508;13.422;2023-09-08T04:43:04;13.07;;;12.00;;
9392;SDS011;4736;52.508;13.422;2023-09-08T04:46:08;13.63;;;11.83;;
9392;SDS011;4736;52.508;13.422;2023-09-08T04:49:11;12.17;;;11.37;;
9392;SDS011;4736;52.508;13.422;2023-09-08T04:52:14;12.10;;;11.23;;
9392;SDS011;4736;52.508;13.422;2023-09-08T04:55:17;14.43;;;12.60;;
9392;SDS011;4736;52.508;13.422;2023-09-08T04:58:21;13.00;;;11.90;;
9392;SDS011;4736;52.508;13.422;2023-09-08T05:01:25;12.67;;;11.47;;
9392;SDS011;4736;52.508;13.422;2023-09-08T05:04:28;13.33;;;12.17;;
9392;SDS011;4736;52.508;13.422;2023-09-08T05:07:31;13.97;;;12.67;;
9392;SDS011;4736;52.508;13.422;2023-09-08T05:10:35;13.40;;;12.07;;
9392;SDS011;4736;52.508;13.422;2023-09-08T05:13:38;13.17;;;11.87;;
9392;SDS011;4736;52.508;13.422;2023-09-08T05:16:42;15.63;;;12.57;;
9392;SDS011;4736;52.508;13.422;2023-09-08T05:19:48;13.70;;;12.57;;
9392;SDS011;4736;52.508;13.422;2023-09-08T05:22:51;13.77;;;12.43;;
9392;SDS011;4736;52.508;13.422;2023-09-08T05:25:54;24.03;;;13.37;;
9392;SDS011;4736;52.508;13.422;2023-09-08T05:28:58;17.47;;;14.13;;
9392;SDS011;4736;52.508;13.422;2023-09-08T05:32:02;16.43;;;13.20;;
9392;SDS011;4736;52.508;13.422;2023-09-08T05:35:06;17.13;;;13.97;;
9392;SDS011;4736;52.508;13.422;2023-09-08T05:38:12;13.37;;;12.13;;
9392;SDS011;4736;52.508;13.422;2023-09-08T05:41:15;12.70;;;11.70;;
9392;SDS011;4736;52.508;13.422;2023-09-08T05:44:18;14.53;;;13.13;;
9392;SDS011;4736;52.508;13.422;2023-09-08T05:47:23;14.53;;;13.07;;
9392;SDS011;4736;52.508;13.422;2023-09-08T05:50:26;14.17;;;12.90;;
9392;SDS011;4736;52.508;13.422;2023-09-08T05:53:30;13.60;;;12.47;;
9392;SDS011;4736;52.508;13.422;2023-09-08T05:56:33;15.90;;;14.60;;
9392;SDS011;4736;52.508;13.422;2023-09-08T05:59:39;14.93;;;13.70;;
9392;SDS011;4736;52.508;13.422;2023-09-08T06:02:44;13.30;;;12.27;;
9392;SDS011;4736;52.508;13.422;2023-09-08T06:05:47;13.57;;;12.37;;
9392;SDS011;4736;52.508;13.422;2023-09-08T06:08:50;14.03;;;12.83;;
9392;SDS011;4736;52.508;13.422;2023-09-08T06:11:53;14.53;;;12.13;;
9392;SDS011;4736;52.508;13.422;2023-09-08T06:14:56;11.63;;;10.73;;
9392;SDS011;4736;52.508;13.422;2023-09-08T06:18:01;13.70;;;12.47;;
9392;SDS011;4736;52.508;13.422;2023-09-08T06:21:04;13.90;;;12.70;;
9392;SDS011;4736;52.508;13.422;2023-09-08T06:24:07;12.10;;;10.97;;
9392;SDS011;4736;52.508;13.422;2023-09-08T06:27:10;13.67;;;12.30;;
9392;SDS011;4736;52.508;13.422;2023-09-08T06:30:14;14.60;;;13.03;;
9392;SDS011;4736;52.508;13.422;2023-09-08T06:33:20;13.00;;;11.70;;
9392;SDS011;4736;52.508;13.422;2023-09-08T06:36:25;13.30;;;12.10;;
9392;SDS011;4736;52.508;13.422;2023-09-08T06:39:31;13.50;;;12.40;;
9392;SDS011;4736;52.508;13.422;2023-09-08T06:42:34;13.43;;;12.07;;
9392;SDS011;4736;52.508;13.422;2023-09-08T06:45:37;14.37;;;12.30;;
9392;SDS011;4736;52.508;13.422;2023-09-08T06:48:42;13.20;;;11.93;;
9392;SDS011;4736;52.508;13.422;2023-09-08T06:51:45;14.97;;;12.97;;
9392;SDS011;4736;52.508;13.422;2023-09-08T06:54:50;13.27;;;11.97;;
9392;SDS011;4736;52.508;13.422;2023-09-08T06:57:53;13.87;;;12.43;;
9392;SDS011;4736;52.508;13.422;2023-09-08T07:00:56;13.07;;;11.50;;
9392;SDS011;4736;52.508;13.422;2023-09-08T07:04:01;15.07;;;12.40;;
9392;SDS011;4736;52.508;13.422;2023-09-08T07:07:04;14.27;;;11.33;;
9392;SDS011;4736;52.508;13.422;2023-09-08T07:10:09;12.97;;;11.30;;
9392;SDS011;4736;52.508;13.422;2023-09-08T07:13:12;11.60;;;10.50;;
9392;SDS011;4736;52.508;13.422;2023-09-08T07:16:16;13.03;;;11.63;;
9392;SDS011;4736;52.508;13.422;2023-09-08T07:19:20;12.17;;;10.80;;
9392;SDS011;4736;52.508;13.422;2023-09-08T07:22:23;13.83;;;12.30;;
9392;SDS011;4736;52.508;13.422;2023-09-08T07:25:27;11.43;;;10.40;;
9392;SDS011;4736;52.508;13.422;2023-09-08T07:28:30;11.23;;;10.33;;
9392;SDS011;4736;52.508;13.422;2023-09-08T07:31:34;11.67;;;10.67;;
9392;SDS011;4736;52.508;13.422;2023-09-08T07:34:39;12.97;;;11.67;;
9392;SDS011;4736;52.508;13.422;2023-09-08T07:37:42;14.90;;;11.20;;
9392;SDS011;4736;52.508;13.422;2023-09-08T07:40:45;12.30;;;10.97;;
9392;SDS011;4736;52.508;13.422;2023-09-08T07:43:49;12.33;;;10.97;;
9392;SDS011;4736;52.508;13.422;2023-09-08T07:46:52;11.40;;;10.20;;
9392;SDS011;4736;52.508;13.422;2023-09-08T07:53:20;10.37;;;9.57;;
9392;SDS011;4736;52.508;13.422;2023-09-08T07:56:23;13.27;;;10.87;;
9392;SDS011;4736;52.508;13.422;2023-09-08T07:59:26;11.13;;;10.10;;
9392;SDS011;4736;52.508;13.422;2023-09-08T08:02:30;11.00;;;10.10;;
9392;SDS011;4736;52.508;13.422;2023-09-08T08:05:35;10.87;;;9.90;;
9392;SDS011;4736;52.508;13.422;2023-09-08T08:08:39;15.10;;;9.30;;
9392;SDS011;4736;52.508;13.422;2023-09-08T08:11:42;10.30;;;9.37;;
9392;SDS011;4736;52.508;13.422;2023-09-08T08:14:45;10.47;;;9.20;;
9392;SDS011;4736;52.508;13.422;2023-09-08T08:17:48;11.43;;;9.37;;
9392;SDS011;4736;52.508;13.422;2023-09-08T08:20:53;10.37;;;9.43;;
9392;SDS011;4736;52.508;13.422;2023-09-08T08:23:56;10.10;;;9.30;;
9392;SDS011;4736;52.508;13.422;2023-09-08T08:27:00;10.23;;;9.37;;
9392;SDS011;4736;52.508;13.422;2023-09-08T08:30:04;10.97;;;10.13;;
9392;SDS011;4736;52.508;13.422;2023-09-08T08:33:08;10.20;;;9.20;;
9392;SDS011;4736;52.508;13.422;2023-09-08T08:36:13;13.93;;;9.93;;
9392;SDS011;4736;52.508;13.422;2023-09-08T08:39:16;11.07;;;8.97;;
9392;SDS011;4736;52.508;13.422;2023-09-08T08:42:30;11.37;;;10.20;;
9392;SDS011;4736;52.508;13.422;2023-09-08T08:45:34;11.97;;;9.53;;
9392;SDS011;4736;52.508;13.422;2023-09-08T08:48:39;14.83;;;9.90;;
9392;SDS011;4736;52.508;13.422;2023-09-08T08:51:46;12.40;;;8.40;;
9392;SDS011;4736;52.508;13.422;2023-09-08T08:54:50;10.80;;;8.60;;
9392;SDS011;4736;52.508;13.422;2023-09-08T08:57:53;9.60;;;8.77;;
9392;SDS011;4736;52.508;13.422;2023-09-08T09:00:56;10.97;;;9.90;;
9392;SDS011;4736;52.508;13.422;2023-09-08T09:04:01;10.40;;;9.20;;
9392;SDS011;4736;52.508;13.422;2023-09-08T09:07:10;9.27;;;8.57;;
9392;SDS011;4736;52.508;13.422;2023-09-08T09:10:14;9.13;;;8.43;;
9392;SDS011;4736;52.508;13.422;2023-09-08T09:13:18;9.33;;;8.53;;
9392;SDS011;4736;52.508;13.422;2023-09-08T09:16:21;10.37;;;9.37;;
9392;SDS011;4736;52.508;13.422;2023-09-08T09:19:24;9.17;;;8.47;;
9392;SDS011;4736;52.508;13.422;2023-09-08T09:22:37;8.87;;;8.27;;
9392;SDS011;4736;52.508;13.422;2023-09-08T09:25:40;9.37;;;8.57;;
9392;SDS011;4736;52.508;13.422;2023-09-08T09:28:46;8.50;;;7.87;;
9392;SDS011;4736;52.508;13.422;2023-09-08T09:31:51;9.40;;;8.53;;
9392;SDS011;4736;52.508;13.422;2023-09-08T09:34:55;9.63;;;8.37;;
9392;SDS011;4736;52.508;13.422;2023-09-08T09:38:03;8.87;;;8.13;;
9392;SDS011;4736;52.508;13.422;2023-09-08T09:41:06;9.33;;;8.03;;
9392;SDS011;4736;52.508;13.422;2023-09-08T09:44:09;9.33;;;8.50;;
9392;SDS011;4736;52.508;13.422;2023-09-08T09:47:13;9.00;;;8.50;;
9392;SDS011;4736;52.508;13.422;2023-09-08T09:50:26;11.13;;;8.83;;
9392;SDS011;4736;52.508;13.422;2023-09-08T09:53:31;9.17;;;8.47;;
9392;SDS011;4736;52.508;13.422;2023-09-08T09:56:37;9.17;;;8.57;;
9392;SDS011;4736;52.508;13.422;2023-09-08T09:59:43;9.27;;;8.37;;
9392;SDS011;4736;52.508;13.422;2023-09-08T10:02:46;8.40;;;7.83;;
9392;SDS011;4736;52.508;13.422;2023-09-08T10:05:50;8.70;;;7.90;;
9392;SDS011;4736;52.508;13.422;2023-09-08T10:08:54;9.53;;;8.50;;
9392;SDS011;4736;52.508;13.422;2023-09-08T10:11:58;10.07;;;8.00;;
9392;SDS011;4736;52.508;13.422;2023-09-08T10:15:06;8.37;;;7.77;;
9392;SDS011;4736;52.508;13.422;2023-09-08T10:18:11;8.50;;;7.80;;
9392;SDS011;4736;52.508;13.422;2023-09-08T10:21:19;8.27;;;7.47;;
9392;SDS011;4736;52.508;13.422;2023-09-08T10:24:27;8.27;;;7.67;;
9392;SDS011;4736;52.508;13.422;2023-09-08T10:27:35;8.10;;;7.33;;
9392;SDS011;4736;52.508;13.422;2023-09-08T10:30:39;8.00;;;7.40;;
9392;SDS011;4736;52.508;13.422;2023-09-08T10:33:44;9.27;;;8.43;;
9392;SDS011;4736;52.508;13.422;2023-09-08T10:36:48;10.37;;;8.00;;
9392;SDS011;4736;52.508;13.422;2023-09-08T10:39:52;8.30;;;7.53;;
9392;SDS011;4736;52.508;13.422;2023-09-08T10:46:21;7.80;;;7.00;;
9392;SDS011;4736;52.508;13.422;2023-09-08T10:49:26;7.87;;;7.17;;
9392;SDS011;4736;52.508;13.422;2023-09-08T10:52:29;8.53;;;7.87;;
9392;SDS011;4736;52.508;13.422;2023-09-08T10:55:41;8.07;;;7.30;;
9392;SDS011;4736;52.508;13.422;2023-09-08T10:59:00;7.93;;;7.27;;
9392;SDS011;4736;52.508;13.422;2023-09-08T11:02:04;7.50;;;7.07;;
9392;SDS011;4736;52.508;13.422;2023-09-08T11:05:10;8.10;;;7.30;;
9392;SDS011;4736;52.508;13.422;2023-09-08T11:08:17;7.90;;;7.10;;
9392;SDS011;4736;52.508;13.422;2023-09-08T11:11:22;7.90;;;7.30;;
9392;SDS011;4736;52.508;13.422;2023-09-08T11:14:25;7.97;;;7.30;;
9392;SDS011;4736;52.508;13.422;2023-09-08T11:17:29;7.67;;;7.07;;
9392;SDS011;4736;52.508;13.422;2023-09-08T11:20:33;7.63;;;7.23;;
9392;SDS011;4736;52.508;13.422;2023-09-08T11:23:37;8.47;;;7.17;;
9392;SDS011;4736;52.508;13.422;2023-09-08T11:26:42;7.00;;;6.50;;
9392;SDS011;4736;52.508;13.422;2023-09-08T11:29:50;7.73;;;7.23;;
9392;SDS011;4736;52.508;13.422;2023-09-08T11:32:53;7.37;;;6.87;;
9392;SDS011;4736;52.508;13.422;2023-09-08T11:36:00;6.50;;;6.00;;
9392;SDS011;4736;52.508;13.422;2023-09-08T11:39:04;7.57;;;6.80;;
9392;SDS011;4736;52.508;13.422;2023-09-08T11:42:14;11.00;;;6.53;;
9392;SDS011;4736;52.508;13.422;2023-09-08T11:45:18;6.53;;;6.13;;
9392;SDS011;4736;52.508;13.422;2023-09-08T11:48:23;7.40;;;6.90;;
9392;SDS011;4736;52.508;13.422;2023-09-08T11:51:27;6.47;;;6.00;;
9392;SDS011;4736;52.508;13.422;2023-09-08T11:54:30;6.47;;;6.00;;
9392;SDS011;4736;52.508;13.422;2023-09-08T11:57:35;6.95;;;6.45;;
9392;SDS011;4736;52.508;13.422;2023-09-08T12:00:40;9.93;;;6.88;;
9392;SDS011;4736;52.508;13.422;2023-09-08T12:03:52;6.45;;;6.03;;
9392;SDS011;4736;52.508;13.422;2023-09-08T12:06:56;6.30;;;6.00;;
9392;SDS011;4736;52.508;13.422;2023-09-08T12:09:59;6.93;;;6.55;;
9392;SDS011;4736;52.508;13.422;2023-09-08T12:13:12;6.72;;;6.22;;
9392;SDS011;4736;52.508;13.422;2023-09-08T12:16:20;7.65;;;7.07;;
9392;SDS011;4736;52.508;13.422;2023-09-08T12:19:30;6.70;;;6.20;;
9392;SDS011;4736;52.508;13.422;2023-09-08T12:22:33;6.88;;;6.50;;
9392;SDS011;4736;52.508;13.422;2023-09-08T12:25:43;6.85;;;6.30;;
9392;SDS011;4736;52.508;13.422;2023-09-08T12:28:48;7.20;;;6.70;;
9392;SDS011;4736;52.508;13.422;2023-09-08T12:31:51;6.88;;;6.32;;
9392;SDS011;4736;52.508;13.422;2023-09-08T12:34:55;6.70;;;6.22;;
9392;SDS011;4736;52.508;13.422;2023-09-08T12:37:58;6.82;;;6.38;;
9392;SDS011;4736;52.508;13.422;2023-09-08T12:41:02;7.10;;;6.50;;
9392;SDS011;4736;52.508;13.422;2023-09-08T12:44:09;7.65;;;6.43;;
9392;SDS011;4736;52.508;13.422;2023-09-08T12:47:12;8.05;;;6.72;;
9392;SDS011;4736;52.508;13.422;2023-09-08T12:50:16;9.65;;;7.05;;
9392;SDS011;4736;52.508;13.422;2023-09-08T12:53:19;7.45;;;6.68;;
9392;SDS011;4736;52.508;13.422;2023-09-08T12:56:24;7.35;;;6.60;;
9392;SDS011;4736;52.508;13.422;2023-09-08T12:59:29;7.70;;;6.85;;
9392;SDS011;4736;52.508;13.422;2023-09-08T13:02:32;7.00;;;6.53;;
9392;SDS011;4736;52.508;13.422;2023-09-08T13:05:35;6.22;;;5.93;;
9392;SDS011;4736;52.508;13.422;2023-09-08T13:08:40;6.63;;;6.18;;
9392;SDS011;4736;52.508;13.422;2023-09-08T13:11:43;6.40;;;6.10;;
9392;SDS011;4736;52.508;13.422;2023-09-08T13:14:48;6.20;;;5.80;;
9392;SDS011;4736;52.508;13.422;2023-09-08T13:17:51;6.50;;;6.03;;
9392;SDS011;4736;52.508;13.422;2023-09-08T13:20:54;6.05;;;5.68;;
9392;SDS011;4736;52.508;13.422;2023-09-08T13:23:57;5.70;;;5.40;;
9392;SDS011;4736;52.508;13.422;2023-09-08T13:27:00;8.70;;;6.15;;
9392;SDS011;4736;52.508;13.422;2023-09-08T13:30:13;6.43;;;6.13;;
9392;SDS011;4736;52.508;13.422;2023-09-08T13:33:17;7.28;;;6.63;;
9392;SDS011;4736;52.508;13.422;2023-09-08T13:36:21;5.70;;;5.40;;
9392;SDS011;4736;52.508;13.422;2023-09-08T13:39:24;6.65;;;6.00;;
9392;SDS011;4736;52.508;13.422;2023-09-08T13:42:27;5.35;;;5.05;;
9392;SDS011;4736;52.508;13.422;2023-09-08T13:45:31;6.47;;;5.82;;
9392;SDS011;4736;52.508;13.422;2023-09-08T13:48:35;6.57;;;6.18;;
9392;SDS011;4736;52.508;13.422;2023-09-08T13:51:40;6.63;;;6.18;;
9392;SDS011;4736;52.508;13.422;2023-09-08T13:54:45;6.20;;;5.90;;
9392;SDS011;4736;52.508;13.422;2023-09-08T13:58:03;6.50;;;6.10;;
9392;SDS011;4736;52.508;13.422;2023-09-08T14:01:11;6.78;;;6.22;;
9392;SDS011;4736;52.508;13.422;2023-09-08T14:04:19;6.25;;;5.82;;
9392;SDS011;4736;52.508;13.422;2023-09-08T14:07:24;7.00;;;6.53;;
9392;SDS011;4736;52.508;13.422;2023-09-08T14:10:37;5.50;;;5.30;;
9392;SDS011;4736;52.508;13.422;2023-09-08T14:13:45;6.07;;;5.78;;
9392;SDS011;4736;52.508;13.422;2023-09-08T14:16:50;6.07;;;5.78;;
9392;SDS011;4736;52.508;13.422;2023-09-08T14:19:53;7.40;;;6.80;;
9392;SDS011;4736;52.508;13.422;2023-09-08T14:22:57;6.82;;;6.18;;
9392;SDS011;4736;52.508;13.422;2023-09-08T14:26:00;6.35;;;6.00;;
9392;SDS011;4736;52.508;13.422;2023-09-08T14:29:03;6.63;;;6.10;;
9392;SDS011;4736;52.508;13.422;2023-09-08T14:32:08;6.25;;;5.95;;
9392;SDS011;4736;52.508;13.422;2023-09-08T14:35:11;6.30;;;5.90;;
9392;SDS011;4736;52.508;13.422;2023-09-08T14:38:15;6.47;;;6.10;;
9392;SDS011;4736;52.508;13.422;2023-09-08T14:41:18;5.60;;;5.40;;
9392;SDS011;4736;52.508;13.422;2023-09-08T14:44:21;6.13;;;5.72;;
9392;SDS011;4736;52.508;13.422;2023-09-08T14:47:26;5.78;;;5.47;;
9392;SDS011;4736;52.508;13.422;2023-09-08T14:50:30;5.88;;;5.45;;
9392;SDS011;4736;52.508;13.422;2023-09-08T14:53:33;6.43;;;5.82;;
9392;SDS011;4736;52.508;13.422;2023-09-08T14:56:37;6.65;;;6.28;;
9392;SDS011;4736;52.508;13.422;2023-09-08T14:59:40;6.38;;;5.97;;
9392;SDS011;4736;52.508;13.422;2023-09-08T15:02:45;7.32;;;6.65;;
9392;SDS011;4736;52.508;13.422;2023-09-08T15:05:49;6.85;;;6.40;;
9392;SDS011;4736;52.508;13.422;2023-09-08T15:08:52;6.53;;;6.13;;
9392;SDS011;4736;52.508;13.422;2023-09-08T15:11:55;6.25;;;5.88;;
9392;SDS011;4736;52.508;13.422;2023-09-08T15:14:59;6.35;;;5.82;;
9392;SDS011;4736;52.508;13.422;2023-09-08T15:18:05;5.95;;;5.70;;
9392;SDS011;4736;52.508;13.422;2023-09-08T15:21:08;7.55;;;6.88;;
9392;SDS011;4736;52.508;13.422;2023-09-08T15:24:12;6.82;;;6.43;;
9392;SDS011;4736;52.508;13.422;2023-09-08T15:27:16;6.50;;;6.20;;
9392;SDS011;4736;52.508;13.422;2023-09-08T15:30:19;6.93;;;6.53;;
9392;SDS011;4736;52.508;13.422;2023-09-08T15:33:24;6.90;;;6.30;;
9392;SDS011;4736;52.508;13.422;2023-09-08T15:36:27;6.55;;;6.18;;
9392;SDS011;4736;52.508;13.422;2023-09-08T15:39:30;6.70;;;6.22;;
9392;SDS011;4736;52.508;13.422;2023-09-08T15:42:33;6.83;;;6.23;;
9392;SDS011;4736;52.508;13.422;2023-09-08T15:45:37;6.37;;;6.07;;
9392;SDS011;4736;52.508;13.422;2023-09-08T15:48:41;8.05;;;7.05;;
9392;SDS011;4736;52.508;13.422;2023-09-08T15:51:44;6.90;;;6.60;;
9392;SDS011;4736;52.508;13.422;2023-09-08T15:54:51;7.20;;;6.80;;
9392;SDS011;4736;52.508;13.422;2023-09-08T15:57:55;8.00;;;6.87;;
9392;SDS011;4736;52.508;13.422;2023-09-08T16:00:58;7.67;;;7.07;;
9392;SDS011;4736;52.508;13.422;2023-09-08T16:04:05;6.60;;;6.27;;
9392;SDS011;4736;52.508;13.422;2023-09-08T16:07:11;8.07;;;7.20;;
9392;SDS011;4736;52.508;13.422;2023-09-08T16:10:14;6.97;;;6.37;;
9392;SDS011;4736;52.508;13.422;2023-09-08T16:13:17;7.00;;;6.60;;
9392;SDS011;4736;52.508;13.422;2023-09-08T16:16:21;8.03;;;7.50;;
9392;SDS011;4736;52.508;13.422;2023-09-08T16:19:25;6.97;;;6.67;;
9392;SDS011;4736;52.508;13.422;2023-09-08T16:22:30;7.70;;;6.97;;
9392;SDS011;4736;52.508;13.422;2023-09-08T16:25:33;7.60;;;6.93;;
9392;SDS011;4736;52.508;13.422;2023-09-08T16:28:36;7.53;;;6.90;;
9392;SDS011;4736;52.508;13.422;2023-09-08T16:31:39;7.90;;;7.30;;
9392;SDS011;4736;52.508;13.422;2023-09-08T16:34:44;8.00;;;7.43;;
9392;SDS011;4736;52.508;13.422;2023-09-08T16:37:47;6.97;;;6.57;;
9392;SDS011;4736;52.508;13.422;2023-09-08T16:40:50;8.00;;;7.30;;
9392;SDS011;4736;52.508;13.422;2023-09-08T16:43:53;7.73;;;7.33;;
9392;SDS011;4736;52.508;13.422;2023-09-08T16:46:56;7.00;;;6.60;;
9392;SDS011;4736;52.508;13.422;2023-09-08T16:50:01;7.07;;;6.70;;
9392;SDS011;4736;52.508;13.422;2023-09-08T16:53:04;7.67;;;7.17;;
9392;SDS011;4736;52.508;13.422;2023-09-08T16:56:07;7.47;;;6.97;;
9392;SDS011;4736;52.508;13.422;2023-09-08T16:59:10;7.60;;;7.10;;
9392;SDS011;4736;52.508;13.422;2023-09-08T17:02:14;7.87;;;7.27;;
9392;SDS011;4736;52.508;13.422;2023-09-08T17:05:19;7.10;;;6.67;;
9392;SDS011;4736;52.508;13.422;2023-09-08T17:08:22;7.57;;;7.03;;
9392;SDS011;4736;52.508;13.422;2023-09-08T17:11:25;7.33;;;6.93;;
9392;SDS011;4736;52.508;13.422;2023-09-08T17:14:28;7.53;;;6.93;;
9392;SDS011;4736;52.508;13.422;2023-09-08T17:17:31;7.70;;;7.20;;
9392;SDS011;4736;52.508;13.422;2023-09-08T17:20:36;8.23;;;7.43;;
9392;SDS011;4736;52.508;13.422;2023-09-08T17:23:39;8.23;;;7.60;;
9392;SDS011;4736;52.508;13.422;2023-09-08T17:26:42;8.10;;;7.60;;
9392;SDS011;4736;52.508;13.422;2023-09-08T17:29:45;8.43;;;8.03;;
9392;SDS011;4736;52.508;13.422;2023-09-08T17:32:48;9.10;;;8.30;;
9392;SDS011;4736;52.508;13.422;2023-09-08T17:35:53;8.40;;;7.70;;
9392;SDS011;4736;52.508;13.422;2023-09-08T17:38:56;7.90;;;7.27;;
9392;SDS011;4736;52.508;13.422;2023-09-08T17:41:59;9.20;;;8.40;;
9392;SDS011;4736;52.508;13.422;2023-09-08T17:45:02;8.10;;;7.40;;
9392;SDS011;4736;52.508;13.422;2023-09-08T17:48:06;8.13;;;7.63;;
9392;SDS011;4736;52.508;13.422;2023-09-08T17:51:11;8.20;;;7.57;;
9392;SDS011;4736;52.508;13.422;2023-09-08T17:54:14;8.03;;;7.60;;
9392;SDS011;4736;52.508;13.422;2023-09-08T17:57:17;8.10;;;7.60;;
9392;SDS011;4736;52.508;13.422;2023-09-08T18:00:20;10.20;;;9.30;;
9392;SDS011;4736;52.508;13.422;2023-09-08T18:03:26;8.73;;;8.03;;
9392;SDS011;4736;52.508;13.422;2023-09-08T18:06:32;9.30;;;8.50;;
9392;SDS011;4736;52.508;13.422;2023-09-08T18:09:35;9.37;;;8.57;;
9392;SDS011;4736;52.508;13.422;2023-09-08T18:12:38;11.67;;;8.57;;
9392;SDS011;4736;52.508;13.422;2023-09-08T18:15:41;9.00;;;8.40;;
9392;SDS011;4736;52.508;13.422;2023-09-08T18:18:44;8.97;;;8.37;;
9392;SDS011;4736;52.508;13.422;2023-09-08T18:21:50;9.30;;;8.53;;
9392;SDS011;4736;52.508;13.422;2023-09-08T18:24:53;9.03;;;8.43;;
9392;SDS011;4736;52.508;13.422;2023-09-08T18:27:56;9.47;;;8.40;;
9392;SDS011;4736;52.508;13.422;2023-09-08T18:30:59;9.57;;;8.63;;
9392;SDS011;4736;52.508;13.422;2023-09-08T18:34:02;10.07;;;8.93;;
9392;SDS011;4736;52.508;13.422;2023-09-08T18:37:07;9.33;;;8.43;;
9392;SDS011;4736;52.508;13.422;2023-09-08T18:40:10;10.30;;;9.23;;